Archival Weather

Nawabshah

Nawabshah, Pakistan (OPNH)

Report from: Tuesday, September 19, 2023 2:00 PM PKT
Current time: Friday, April 19, 2024 3:34 PM PKT

Current weather – Weather history – Daily summaries
Weather forecast

Temperature38.0°C (100.4°F)
Heat index45.9°C (114.6°F)
Dew point24.0°C (75.2°F)
Winds 14 kts (7.2 m/s, 16.1 mph) North (360°)
Visibility3.7 mi. (6 km)
Clouds Scattered clouds 3,500 ft. (1,067 m)
Altimeter29.59 in.Hg (1002 mB)
Relative humidity45 %
Density altitude3,370 ft. (1,027 m)
Flight conditions Marginal Visual Meteorological Conditions
Raw dataOPNH 190900Z 36014KT 6000 SCT035 38/24 Q1002
An error has occurred. This application may no longer respond until reloaded. Reload 🗙